Time;durP1;ratioP1;P1;durP2;ratioP2;P2;SDS_P1;SDS_P2;PMS_P1;PMS_P2;Temp;Humidity;BMP_temperature;BMP_pressure;BME280_temperature;BME280_humidity;BME280_pressure;Samples;Min_cycle;Max_cycle;Signal;HPM_P1;HPM_P2
2022/04/05 00:01:28;;;;;;;9.78;6.30;;;;;;;8.59;52.65;100080.45;1778454;78;21069;-55
2022/04/05 00:03:55;;;;;;;10.15;6.80;;;;;;;8.31;53.05;100081.94;1791038;78;21504;-55
2022/04/05 00:06:23;;;;;;;9.38;6.50;;;;;;;7.94;53.56;100081.64;1791282;78;21522;-56
2022/04/05 00:08:49;;;;;;;10.63;7.15;;;;;;;7.54;55.77;100078.26;1791082;78;21791;-57
2022/04/05 00:11:18;;;;;;;11.00;7.10;;;;;;;7.49;56.85;100084.91;1791075;78;20968;-61
2022/04/05 00:13:45;;;;;;;11.30;7.60;;;;;;;7.45;57.80;100080.55;1790590;79;21000;-55
2022/04/05 00:16:12;;;;;;;11.95;7.62;;;;;;;7.45;58.41;100077.95;1791438;78;21520;-54
2022/04/05 00:18:39;;;;;;;10.55;7.03;;;;;;;7.37;59.14;100076.68;1790800;79;20991;-56
2022/04/05 00:21:07;;;;;;;12.37;7.70;;;;;;;7.25;60.03;100076.72;1791249;78;20908;-54
2022/04/05 00:23:36;;;;;;;9.85;6.40;;;;;;;7.26;60.71;100079.13;1789868;79;21006;-55
2022/04/05 00:26:02;;;;;;;10.20;6.55;;;;;;;7.22;60.67;100082.23;1791222;78;21002;-56
2022/04/05 00:28:29;;;;;;;12.78;7.12;;;;;;;7.18;61.95;100081.75;1791039;78;20999;-57
2022/04/05 00:30:57;;;;;;;10.03;6.30;;;;;;;7.14;62.67;100075.77;1791238;78;21058;-56
2022/04/05 00:33:24;;;;;;;10.43;7.25;;;;;;;7.11;63.17;100073.50;1790478;78;22057;-60
2022/04/05 00:35:51;;;;;;;9.63;7.08;;;;;;;7.23;63.00;100074.77;1790694;78;21029;-57
2022/04/05 00:38:18;;;;;;;8.70;6.12;;;;;;;7.27;62.91;100066.98;1791252;78;21457;-56
2022/04/05 00:40:46;;;;;;;10.70;6.58;;;;;;;7.27;63.03;100063.92;1790644;79;21471;-55
2022/04/05 00:43:12;;;;;;;12.33;7.85;;;;;;;7.33;63.02;100061.14;1791068;78;20999;-60
2022/04/05 00:45:40;;;;;;;10.72;7.22;;;;;;;7.38;62.70;100058.84;1790464;79;21205;-55
2022/04/05 00:48:07;;;;;;;10.28;7.40;;;;;;;7.38;62.80;100053.66;1778736;78;21492;-56
2022/04/05 00:50:37;;;;;;;11.35;6.72;;;;;;;7.44;62.61;100060.78;1790877;79;21473;-56
2022/04/05 00:53:06;;;;;;;10.00;6.85;;;;;;;7.39;62.63;100061.78;1790894;79;21536;-55
2022/04/05 00:55:34;;;;;;;9.68;6.83;;;;;;;7.48;62.33;100061.25;1790275;79;21113;-56
2022/04/05 00:58:02;;;;;;;10.68;7.25;;;;;;;7.42;62.84;100065.31;1791195;78;21159;-56
2022/04/05 01:00:30;;;;;;;12.23;7.78;;;;;;;7.55;61.95;100059.61;1790926;78;21021;-57
2022/04/05 01:02:57;;;;;;;11.33;7.12;;;;;;;7.60;61.32;100055.21;1790965;78;20975;-55
2022/04/05 01:05:23;;;;;;;10.18;6.90;;;;;;;7.48;61.34;100052.98;1791104;78;20943;-62
2022/04/05 01:07:50;;;;;;;11.73;7.60;;;;;;;7.65;61.45;100052.91;1790944;78;20975;-56
2022/04/05 01:10:17;;;;;;;10.98;7.78;;;;;;;7.64;61.29;100054.70;1791015;79;21273;-55
2022/04/05 01:12:47;;;;;;;12.70;7.90;;;;;;;7.79;60.47;100049.11;1791208;78;20946;-54
2022/04/05 01:15:14;;;;;;;9.93;7.20;;;;;;;7.76;60.04;100046.05;1790114;79;21027;-55
2022/04/05 01:17:41;;;;;;;12.33;7.53;;;;;;;7.78;60.15;100052.70;1790659;78;21025;-54
2022/04/05 01:20:10;;;;;;;12.90;8.20;;;;;;;7.66;60.51;100050.16;1791068;79;21068;-56
2022/04/05 01:22:50;;;;;;;12.93;7.72;;;;;;;7.65;61.05;100048.55;1790964;79;21656;-57
2022/04/05 01:25:19;;;;;;;9.93;6.10;;;;;;;7.71;60.84;100046.56;1790248;79;20976;-60
2022/04/05 01:27:47;;;;;;;11.53;7.10;;;;;;;7.67;60.90;100045.28;1790504;79;21461;-56
2022/04/05 01:30:13;;;;;;;10.85;7.67;;;;;;;8.09;60.23;100050.58;1791422;78;21048;-56
2022/04/05 01:32:40;;;;;;;10.28;7.35;;;;;;;8.68;56.37;100048.24;1791068;78;21594;-57
2022/04/05 01:35:08;;;;;;;11.08;7.75;;;;;;;8.69;55.45;100045.14;1791226;78;21307;-58
2022/04/05 01:37:34;;;;;;;8.15;6.12;;;;;;;8.70;54.94;100046.75;1790852;78;20947;-56
2022/04/05 01:40:01;;;;;;;10.78;7.58;;;;;;;7.83;56.77;100046.99;1791672;78;21065;-56
2022/04/05 01:42:28;;;;;;;11.05;7.70;;;;;;;8.34;55.69;100044.75;1778764;79;20995;-57
2022/04/05 01:44:55;;;;;;;9.13;6.42;;;;;;;8.61;55.07;100044.73;1791046;78;20982;-57
2022/04/05 01:47:22;;;;;;;10.90;7.25;;;;;;;8.50;55.10;100047.73;1791204;79;21155;-56
2022/04/05 01:49:49;;;;;;;10.20;7.35;;;;;;;8.53;54.88;100045.60;1790142;79;21532;-57
2022/04/05 01:52:15;;;;;;;10.38;6.75;;;;;;;7.99;55.61;100044.33;1790852;79;21057;-57
2022/04/05 01:54:42;;;;;;;11.30;7.40;;;;;;;7.64;58.55;100046.11;1790700;79;21102;-57
2022/04/05 01:57:08;;;;;;;11.20;7.78;;;;;;;7.54;59.97;100043.73;1791094;78;20975;-57
2022/04/05 01:59:38;;;;;;;10.88;6.67;;;;;;;7.56;60.56;100046.46;1790508;79;22430;-57
2022/04/05 02:02:09;;;;;;;12.35;7.10;;;;;;;7.61;60.85;100043.85;1791322;78;21005;-57
2022/04/05 02:04:36;;;;;;;11.22;7.00;;;;;;;7.56;61.30;100045.66;1785453;79;21473;-56
2022/04/05 02:07:15;;;;;;;11.05;7.20;;;;;;;7.25;63.39;100043.02;1778509;80;20920;-56
2022/04/05 02:09:44;;;;;;;11.33;7.20;;;;;;;7.22;64.38;100044.15;1779815;79;20991;-57
2022/04/05 02:12:11;;;;;;;12.73;8.40;;;;;;;7.13;65.79;100046.45;1778216;79;21257;-57
2022/04/05 02:14:40;;;;;;;10.25;6.97;;;;;;;7.20;66.43;100051.79;1734277;79;21031;-57
2022/04/05 02:17:09;;;;;;;10.68;7.65;;;;;;;7.28;66.99;100051.27;1778765;80;20940;-60
2022/04/05 02:19:38;;;;;;;10.08;7.30;;;;;;;7.26;67.13;100044.13;1755430;80;20955;-57
2022/04/05 02:22:07;;;;;;;9.80;7.17;;;;;;;7.27;67.31;100040.59;1779740;79;21009;-57
2022/04/05 02:24:36;;;;;;;11.97;8.58;;;;;;;7.28;67.69;100044.79;1779766;79;21351;-57
2022/04/05 02:27:04;;;;;;;13.00;7.97;;;;;;;7.14;69.02;100044.66;1780411;79;21054;-61
2022/04/05 02:29:34;;;;;;;11.45;7.45;;;;;;;7.09;69.38;100041.77;1778609;80;20970;-57
2022/04/05 02:32:04;;;;;;;10.90;7.80;;;;;;;7.23;68.37;100043.16;1779246;79;20987;-57
2022/04/05 02:34:31;;;;;;;11.73;7.05;;;;;;;7.30;67.38;100042.02;1773478;79;21577;-57
2022/04/05 02:37:00;;;;;;;11.70;7.87;;;;;;;7.28;67.31;100047.88;1773410;80;21278;-60
2022/04/05 02:39:27;;;;;;;11.73;8.83;;;;;;;7.30;67.08;100049.80;1766403;80;21014;-56
2022/04/05 02:41:56;;;;;;;14.55;8.75;;;;;;;7.22;66.62;100049.83;1761375;79;20999;-56
2022/04/05 02:44:23;;;;;;;11.90;8.30;;;;;;;7.36;65.19;100053.03;1778486;80;21038;-57
2022/04/05 02:46:52;;;;;;;12.63;7.80;;;;;;;7.36;64.95;100051.73;1776618;80;21102;-58
2022/04/05 02:49:20;;;;;;;13.50;8.35;;;;;;;7.34;64.81;100049.78;1779108;79;22445;-57
2022/04/05 02:54:04;;;;;;;12.07;8.27;;;;;;;6.31;76.15;100050.86;1873206;74;22554;-55
2022/04/05 02:56:33;;;;;;;12.63;9.58;;;;;;;6.45;73.51;100050.23;1846968;77;21496;-55
2022/04/05 02:59:00;;;;;;;13.85;8.65;;;;;;;6.75;71.33;100053.16;1845837;77;21011;-60
2022/04/05 03:01:27;;;;;;;12.93;8.40;;;;;;;6.97;68.39;100056.37;1793900;77;20913;-56
2022/04/05 03:03:55;;;;;;;10.68;8.20;;;;;;;6.51;70.80;100057.34;1737071;82;20925;-55
2022/04/05 03:06:23;;;;;;;12.00;7.78;;;;;;;6.32;75.01;100059.75;1706881;84;21075;-56
2022/04/05 03:08:56;;;;;;;15.90;8.85;;;;;;;6.24;77.49;100058.94;1727099;82;20966;-57
2022/04/05 03:11:22;;;;;;;12.63;8.45;;;;;;;6.36;78.20;100058.95;1705063;82;21763;-57
2022/04/05 03:13:51;;;;;;;13.45;8.33;;;;;;;6.64;75.11;100062.05;1749122;81;20951;-56
2022/04/05 03:16:19;;;;;;;16.60;9.50;;;;;;;6.75;74.26;100060.92;1749301;80;21045;-55
2022/04/05 03:18:48;;;;;;;12.90;8.65;;;;;;;6.77;74.14;100061.55;1749314;81;21004;-56
2022/04/05 03:21:15;;;;;;;12.60;8.95;;;;;;;6.85;73.55;100070.61;1737797;81;20896;-56
2022/04/05 03:23:43;;;;;;;11.68;7.78;;;;;;;6.70;75.44;100069.64;1736483;81;21233;-57
2022/04/05 03:26:10;;;;;;;11.08;8.05;;;;;;;6.74;76.41;100069.19;1748030;81;20885;-56
2022/04/05 03:28:38;;;;;;;12.07;8.90;;;;;;;6.66;77.65;100069.65;1748888;81;21015;-56
2022/04/05 03:31:05;;;;;;;13.13;8.33;;;;;;;6.68;78.46;100071.61;1748281;81;20932;-57
2022/04/05 03:33:33;;;;;;;11.97;7.87;;;;;;;6.64;79.85;100075.49;1748822;81;21064;-56
2022/04/05 03:36:01;;;;;;;11.68;8.08;;;;;;;6.75;79.49;100069.98;1749211;82;21141;-56
2022/04/05 03:38:29;;;;;;;14.33;9.03;;;;;;;6.86;78.83;100079.19;1749170;81;20970;-56
2022/04/05 03:40:56;;;;;;;11.05;8.35;;;;;;;7.05;77.35;100077.08;1748782;81;20983;-56
2022/04/05 03:43:23;;;;;;;12.73;8.65;;;;;;;7.03;76.73;100089.88;1749066;81;21074;-56
2022/04/05 03:45:53;;;;;;;11.73;8.03;;;;;;;6.61;79.24;100088.76;1748468;81;21044;-56
2022/04/05 03:48:20;;;;;;;13.58;8.68;;;;;;;7.16;77.99;100080.28;1749176;81;21326;-56
2022/04/05 03:50:47;;;;;;;13.50;8.73;;;;;;;7.28;76.53;100082.38;1748803;81;20928;-57
2022/04/05 03:53:14;;;;;;;11.73;8.63;;;;;;;7.38;75.59;100085.27;1741631;80;21053;-59
2022/04/05 03:55:43;;;;;;;12.20;8.70;;;;;;;7.29;77.26;100090.48;1729947;80;20999;-56
2022/04/05 03:58:12;;;;;;;12.00;8.38;;;;;;;7.52;75.68;100091.06;1740454;80;21548;-55
2022/04/05 04:00:40;;;;;;;12.40;9.20;;;;;;;6.83;80.22;100095.40;1749126;81;22261;-57
2022/04/05 04:03:12;;;;;;;13.45;8.15;;;;;;;7.41;80.33;100095.31;1751544;81;21516;-56
2022/04/05 04:05:39;;;;;;;12.10;8.15;;;;;;;7.56;77.86;100105.31;1751514;81;20991;-56
2022/04/05 04:08:07;;;;;;;13.20;9.18;;;;;;;7.78;76.07;100101.19;1751836;81;21025;-55
2022/04/05 04:10:35;;;;;;;9.85;7.22;;;;;;;7.90;74.17;100097.73;1740073;81;20844;-56
2022/04/05 04:13:05;;;;;;;11.57;8.00;;;;;;;7.95;73.36;100094.94;1715940;82;21626;-57
2022/04/05 04:15:34;;;;;;;15.20;8.45;;;;;;;8.08;72.38;100102.69;1738904;81;21089;-57
2022/04/05 04:18:02;;;;;;;14.60;8.80;;;;;;;8.14;71.54;100105.38;1751815;81;20978;-56
2022/04/05 04:20:30;;;;;;;15.38;8.60;;;;;;;8.20;71.51;100106.50;1751551;81;21018;-56
2022/04/05 04:22:57;;;;;;;14.03;8.85;;;;;;;8.43;69.46;100106.06;1752228;81;20900;-56
2022/04/05 04:25:24;;;;;;;10.40;8.00;;;;;;;8.66;67.30;100104.76;1750988;81;21154;-56
2022/04/05 04:27:51;;;;;;;12.45;8.10;;;;;;;8.86;65.58;100099.88;1751633;81;20979;-56
2022/04/05 04:30:18;;;;;;;13.18;8.65;;;;;;;8.96;63.56;100104.84;1751638;81;20931;-56
2022/04/05 04:32:45;;;;;;;11.18;8.40;;;;;;;9.11;62.45;100102.28;1751463;81;21157;-57
2022/04/05 04:35:12;;;;;;;11.55;8.10;;;;;;;9.23;62.13;100096.95;1751634;81;21058;-60
2022/04/05 04:37:39;;;;;;;12.90;7.60;;;;;;;9.35;62.20;100104.63;1751411;81;21234;-55
2022/04/05 04:40:07;;;;;;;10.20;7.62;;;;;;;9.43;61.19;100107.16;1701546;81;21570;-56
2022/04/05 04:42:35;;;;;;;10.38;7.42;;;;;;;9.48;60.58;100104.83;1751573;81;21527;-54
2022/04/05 04:45:01;;;;;;;10.78;7.78;;;;;;;9.72;59.65;100111.53;1751631;81;21035;-55
2022/04/05 04:47:28;;;;;;;9.13;6.85;;;;;;;9.98;58.32;100111.06;1750940;81;21547;-55
2022/04/05 04:49:54;;;;;;;10.40;6.97;;;;;;;10.25;57.38;100117.90;1751780;81;21138;-55
2022/04/05 04:52:21;;;;;;;10.35;7.90;;;;;;;10.51;56.12;100122.58;1751365;81;21502;-56
2022/04/05 04:54:48;;;;;;;14.68;10.43;;;;;;;10.69;54.33;100124.77;1751668;81;20884;-55
2022/04/05 04:57:15;;;;;;;11.93;8.38;;;;;;;10.82;53.32;100112.33;1751605;81;21014;-55
2022/04/05 04:59:42;;;;;;;16.10;9.28;;;;;;;11.10;52.41;100124.91;1751046;81;20927;-56
2022/04/05 05:02:10;;;;;;;14.85;8.55;;;;;;;11.47;51.27;100112.98;1750179;81;21267;-56
2022/04/05 05:04:37;;;;;;;11.73;8.23;;;;;;;11.84;50.38;100112.60;1749121;81;21417;-55
2022/04/05 05:07:05;;;;;;;10.68;7.95;;;;;;;12.21;49.39;100109.22;1746572;80;21011;-56
2022/04/05 05:09:32;;;;;;;10.23;7.30;;;;;;;12.38;48.83;100115.67;1728754;81;20904;-59
2022/04/05 05:12:00;;;;;;;10.87;8.13;;;;;;;13.04;46.87;100107.59;1726720;81;21364;-56
2022/04/05 05:14:27;;;;;;;11.03;8.40;;;;;;;13.25;45.95;100113.92;1730646;81;21747;-57
2022/04/05 05:16:54;;;;;;;10.43;7.67;;;;;;;13.47;45.23;100109.77;1726221;81;21205;-56
2022/04/05 05:19:21;;;;;;;11.33;8.00;;;;;;;15.07;42.68;100098.67;1728665;81;21097;-60
2022/04/05 05:21:48;;;;;;;10.00;7.80;;;;;;;17.18;37.29;100086.37;1725321;81;21303;-56
2022/04/05 05:24:14;;;;;;;11.10;7.70;;;;;;;17.18;37.29;100086.37;1726340;81;22184;-55
2022/04/05 05:26:41;;;;;;;11.00;7.40;;;;;;;17.61;36.56;100080.39;1725830;81;21664;-55
2022/04/05 05:29:11;;;;;;;9.47;6.90;;;;;;;17.86;35.85;100081.44;1726356;81;20951;-57
2022/04/05 05:31:40;;;;;;;10.07;7.73;;;;;;;18.57;34.75;100078.73;1725001;81;20939;-61
2022/04/05 05:34:07;;;;;;;10.37;7.40;;;;;;;18.65;33.64;100077.00;1713363;81;20900;-56
2022/04/05 05:36:34;;;;;;;10.17;7.77;;;;;;;18.12;34.17;100080.08;1749300;81;21074;-55
2022/04/05 05:39:01;;;;;;;9.90;7.83;;;;;;;17.47;34.41;100085.94;1749178;81;21417;-56
2022/04/05 05:41:30;;;;;;;8.67;7.67;;;;;;;17.77;34.10;100073.60;1749684;81;21674;-55
2022/04/05 05:43:57;;;;;;;10.47;7.70;;;;;;;17.69;33.63;100083.48;1748630;81;20892;-56
2022/04/05 05:46:24;;;;;;;10.00;8.23;;;;;;;17.53;33.37;100081.55;1749280;81;21046;-57
2022/04/05 05:48:51;;;;;;;11.37;8.23;;;;;;;17.47;32.84;100085.94;1746988;80;21046;-56
2022/04/05 05:51:17;;;;;;;10.30;7.70;;;;;;;17.36;33.03;100084.64;1749715;81;22207;-56
2022/04/05 05:53:45;;;;;;;10.50;7.90;;;;;;;17.34;33.18;100082.73;1743715;81;21050;-62
2022/04/05 05:56:12;;;;;;;10.93;8.37;;;;;;;17.41;33.11;100080.78;1749199;81;20971;-57
2022/04/05 05:58:41;;;;;;;13.97;8.40;;;;;;;17.50;33.10;100085.97;1749118;81;20959;-57
2022/04/05 06:01:07;;;;;;;12.70;8.17;;;;;;;17.71;33.41;100080.08;1749134;81;21517;-56
2022/04/05 06:03:34;;;;;;;12.40;8.17;;;;;;;18.12;33.35;100081.39;1748909;81;21319;-56
2022/04/05 06:06:01;;;;;;;11.53;8.40;;;;;;;18.32;32.61;100076.98;1740804;80;21587;-57
2022/04/05 06:08:28;;;;;;;10.27;7.50;;;;;;;18.30;32.12;100075.12;1733266;80;21033;-56
2022/04/05 06:10:55;;;;;;;9.73;7.80;;;;;;;17.99;32.48;100078.51;1742353;81;20920;-58
2022/04/05 06:13:22;;;;;;;9.07;7.73;;;;;;;17.82;32.19;100082.95;1749033;81;20971;-57
2022/04/05 06:15:50;;;;;;;10.20;7.33;;;;;;;17.72;32.84;100082.98;1748171;81;21151;-56
2022/04/05 06:18:17;;;;;;;10.33;6.30;;;;;;;17.43;33.18;100095.86;1749004;81;20991;-57
2022/04/05 06:20:44;;;;;;;8.43;6.10;;;;;;;17.67;31.64;100084.73;1748888;81;20927;-57
2022/04/05 06:23:12;;;;;;;9.70;5.53;;;;;;;18.18;31.20;100083.89;1748987;81;21075;-57
2022/04/05 06:25:39;;;;;;;7.00;4.13;;;;;;;19.23;29.36;100082.08;1748616;81;21002;-62
2022/04/05 06:28:07;;;;;;;6.80;5.03;;;;;;;19.65;26.82;100077.08;1749139;81;21844;-58
2022/04/05 06:30:37;;;;;;;5.47;4.00;;;;;;;20.07;26.15;100073.81;1746818;81;20979;-57
2022/04/05 06:33:08;;;;;;;5.70;4.70;;;;;;;20.45;25.37;100075.48;1744034;80;21089;-58
2022/04/05 06:35:37;;;;;;;5.33;4.58;;;;;;;21.09;24.85;100071.97;1734863;80;21046;-63
2022/04/05 06:38:05;;;;;;;6.30;5.10;;;;;;;21.69;23.19;100065.90;1740956;81;21061;-58
2022/04/05 06:40:32;;;;;;;5.77;4.53;;;;;;;22.22;23.47;100067.89;1733959;81;21215;-58
2022/04/05 06:42:59;;;;;;;6.87;4.60;;;;;;;22.79;23.29;100064.14;1738374;80;20865;-57
2022/04/05 06:45:27;;;;;;;5.43;3.97;;;;;;;23.14;20.55;100065.14;1736559;81;20975;-58
2022/04/05 06:47:54;;;;;;;6.77;4.57;;;;;;;22.88;20.60;100067.03;1748599;81;21513;-56
2022/04/05 06:50:24;;;;;;;5.70;4.20;;;;;;;22.65;21.29;100063.09;1749409;81;21078;-56
2022/04/05 06:52:51;;;;;;;5.50;3.93;;;;;;;22.26;21.13;100070.27;1740371;81;21187;-58
2022/04/05 06:55:18;;;;;;;4.90;3.40;;;;;;;21.63;21.10;100074.39;1749207;81;22208;-56
2022/04/05 06:57:45;;;;;;;4.73;3.33;;;;;;;21.02;21.19;100069.55;1748327;81;20920;-57
2022/04/05 07:00:13;;;;;;;5.33;3.33;;;;;;;20.49;20.89;100088.52;1748864;81;21065;-57
2022/04/05 07:02:42;;;;;;;5.00;3.80;;;;;;;19.80;20.45;100068.52;1739270;81;20987;-56
2022/04/05 07:05:12;;;;;;;5.33;3.40;;;;;;;19.40;21.22;100069.63;1748567;81;21281;-57
2022/04/05 07:07:39;;;;;;;4.37;3.60;;;;;;;19.74;21.81;100070.86;1736907;81;21105;-55
2022/04/05 07:10:07;;;;;;;4.97;3.30;;;;;;;20.08;21.27;100073.59;1748699;81;21007;-55
2022/04/05 07:12:35;;;;;;;5.37;3.57;;;;;;;19.92;20.76;100067.31;1748523;81;21067;-56
2022/04/05 07:15:05;;;;;;;5.60;3.83;;;;;;;18.91;21.15;100082.19;1748731;81;20936;-55
2022/04/05 07:17:34;;;;;;;5.77;4.00;;;;;;;18.13;21.86;100077.19;1748011;81;21026;-56
2022/04/05 07:20:01;;;;;;;7.03;3.93;;;;;;;17.62;22.88;100071.47;1748555;81;21041;-57
2022/04/05 07:22:29;;;;;;;4.87;3.67;;;;;;;17.23;23.34;100082.52;1748471;81;20939;-57
2022/04/05 07:24:55;;;;;;;5.50;3.87;;;;;;;16.51;23.84;100085.31;1748584;81;21000;-56
2022/04/05 07:27:22;;;;;;;6.90;3.80;;;;;;;15.88;25.06;100085.81;1747573;81;21484;-62
2022/04/05 07:29:48;;;;;;;5.90;4.10;;;;;;;15.84;24.93;100074.14;1748934;81;21203;-56
2022/04/05 07:32:16;;;;;;;5.50;3.90;;;;;;;16.11;25.48;100081.16;1748298;81;20979;-57
2022/04/05 07:34:42;;;;;;;5.70;4.03;;;;;;;16.78;25.60;100074.39;1748421;81;20900;-57
2022/04/05 07:37:11;;;;;;;6.20;3.77;;;;;;;17.39;24.98;100072.33;1748101;81;20943;-58
2022/04/05 07:39:40;;;;;;;5.20;3.67;;;;;;;18.04;24.26;100060.69;1748771;81;21093;-54
2022/04/05 07:42:08;;;;;;;5.33;3.63;;;;;;;18.57;23.90;100065.53;1748684;81;21238;-55
2022/04/05 07:44:36;;;;;;;5.63;3.80;;;;;;;19.23;23.07;100049.84;1737359;81;20944;-54
2022/04/05 07:47:05;;;;;;;4.57;3.73;;;;;;;19.55;22.20;100049.98;1748835;81;21010;-59
2022/04/05 07:49:33;;;;;;;4.97;3.55;;;;;;;19.25;22.94;100049.63;1748533;81;21063;-54
2022/04/05 07:52:00;;;;;;;5.33;3.93;;;;;;;19.67;22.96;100048.56;1748927;81;20920;-54
2022/04/05 07:54:27;;;;;;;5.57;3.60;;;;;;;19.77;22.78;100053.14;1748177;81;23054;-55
2022/04/05 07:56:54;;;;;;;5.73;3.70;;;;;;;19.69;22.33;100043.80;1748737;81;20987;-54
2022/04/05 07:59:21;;;;;;;4.40;3.40;;;;;;;19.72;22.93;100043.31;1747963;81;21037;-57
2022/04/05 08:01:49;;;;;;;6.07;4.07;;;;;;;20.06;22.58;100039.16;1748403;81;21161;-57
2022/04/05 08:04:15;;;;;;;5.27;3.97;;;;;;;20.18;22.76;100033.17;1748836;81;21074;-54
2022/04/05 08:06:44;;;;;;;7.80;4.40;;;;;;;20.06;22.45;100039.16;1748639;81;20995;-55
2022/04/05 08:09:10;;;;;;;5.53;3.80;;;;;;;19.39;22.28;100031.00;1747972;81;20987;-55
2022/04/05 08:11:37;;;;;;;7.97;4.33;;;;;;;18.71;22.82;100034.34;1748650;81;21464;-57
2022/04/05 08:14:04;;;;;;;7.63;4.80;;;;;;;18.17;23.79;100040.59;1748820;81;21039;-56
2022/04/05 08:16:31;;;;;;;5.27;3.70;;;;;;;18.09;24.40;100029.11;1748569;81;21504;-56
2022/04/05 08:18:58;;;;;;;6.70;4.10;;;;;;;18.32;23.57;100022.89;1748687;81;21249;-54
2022/04/05 08:21:25;;;;;;;6.20;4.07;;;;;;;18.32;23.59;100022.89;1748425;80;20983;-54
2022/04/05 08:23:53;;;;;;;4.90;3.93;;;;;;;18.10;23.85;100016.98;1748452;81;21331;-53
2022/04/05 08:26:19;;;;;;;6.53;4.57;;;;;;;17.88;24.21;100020.02;1748815;81;21042;-53
2022/04/05 08:28:46;;;;;;;6.87;4.20;;;;;;;17.87;24.91;100015.27;1748710;81;20999;-54
2022/04/05 08:31:18;;;;;;;6.23;4.37;;;;;;;18.11;24.67;100014.66;1748547;81;21240;-60
2022/04/05 08:33:45;;;;;;;6.17;4.57;;;;;;;18.20;24.64;100005.81;1722400;82;21049;-54
2022/04/05 08:36:13;;;;;;;5.73;4.00;;;;;;;18.36;24.76;100016.09;1748766;81;20931;-55
2022/04/05 08:38:40;;;;;;;6.97;4.33;;;;;;;18.24;24.72;100002.45;1748976;81;20974;-55
2022/04/05 08:41:07;;;;;;;6.40;3.70;;;;;;;18.20;24.75;100003.97;1749038;81;20964;-54
2022/04/05 08:43:35;;;;;;;7.63;4.40;;;;;;;18.45;24.69;99994.88;1747675;82;21470;-54
2022/04/05 08:46:03;;;;;;;5.40;4.00;;;;;;;18.63;24.36;99990.62;1748695;81;21030;-57
2022/04/05 08:48:31;;;;;;;5.90;4.30;;;;;;;19.39;24.52;99998.77;1748415;81;21089;-55
2022/04/05 08:50:58;;;;;;;6.93;4.43;;;;;;;19.80;23.71;99999.75;1748609;81;21431;-58
2022/04/05 08:53:25;;;;;;;5.50;4.23;;;;;;;19.88;23.68;100001.41;1748743;81;20928;-60
2022/04/05 08:55:52;;;;;;;6.83;4.23;;;;;;;19.83;22.91;99997.41;1748797;81;21473;-54
2022/04/05 08:58:21;;;;;;;6.40;4.27;;;;;;;19.75;22.92;99985.17;1748877;81;21019;-54
2022/04/05 09:00:47;;;;;;;6.57;4.10;;;;;;;19.09;23.07;99992.63;1748542;81;21490;-53
2022/04/05 09:03:14;;;;;;;6.10;4.00;;;;;;;19.08;23.31;99989.68;1715226;82;20917;-59
2022/04/05 09:05:47;;;;;;;6.23;4.00;;;;;;;19.01;23.21;99985.63;1707125;84;21122;-54
2022/04/05 09:08:27;;;;;;;6.17;4.13;;;;;;;18.96;23.25;99986.36;1730914;82;21244;-54
2022/04/05 09:11:12;;;;;;;4.90;3.53;;;;;;;18.92;22.92;99982.61;1735888;80;21576;-55
2022/04/05 09:13:40;;;;;;;6.00;3.93;;;;;;;18.26;23.38;99973.70;1737761;81;21070;-54
2022/04/05 09:16:08;;;;;;;9.33;4.13;;;;;;;18.15;24.18;99975.41;1748598;81;21022;-58
2022/04/05 09:18:40;;;;;;;5.93;4.00;;;;;;;18.21;24.00;99968.63;1736676;81;21062;-60
2022/04/05 09:21:08;;;;;;;;;;;;;;;19.08;23.75;99960.62;1753215;80;22685;-54
2022/04/05 09:23:41;;;;;;;7.17;4.13;;;;;;;18.95;23.60;99966.28;1735191;80;20971;-55
2022/04/05 09:26:13;;;;;;;5.77;4.03;;;;;;;19.20;23.41;99961.28;1731904;81;20980;-56
2022/04/05 09:28:44;;;;;;;6.67;4.40;;;;;;;20.08;22.31;99949.22;1737302;81;21069;-55
2022/04/05 09:31:15;;;;;;;6.23;3.90;;;;;;;20.04;22.46;99956.07;1755327;80;21048;-56
2022/04/05 09:34:16;;;;;;;5.87;4.10;;;;;;;20.43;22.42;99945.22;1734259;80;21068;-55
2022/04/05 09:36:46;;;;;;;5.13;3.60;;;;;;;20.15;22.55;99945.84;1687750;80;21563;-56
2022/04/05 09:39:20;;;;;;;4.87;3.77;;;;;;;20.55;21.30;99939.22;1748582;80;21014;-56
2022/04/05 09:41:52;;;;;;;5.50;3.90;;;;;;;19.77;21.59;99938.89;1741643;80;21053;-57
2022/04/05 09:44:32;;;;;;;6.17;4.50;;;;;;;19.20;21.87;99932.75;1744382;80;21137;-60
2022/04/05 09:47:05;;;;;;;7.67;4.23;;;;;;;19.49;21.83;99939.93;1731905;81;22003;-57
2022/04/05 09:49:34;;;;;;;6.87;4.30;;;;;;;18.98;22.31;99935.42;1738850;81;20971;-59
2022/04/05 09:52:01;;;;;;;8.70;4.40;;;;;;;19.48;21.96;99921.16;1748708;81;21007;-57
2022/04/05 09:54:29;;;;;;;6.70;4.53;;;;;;;19.03;22.28;99929.39;1748677;81;21522;-56
2022/04/05 09:57:06;;;;;;;8.10;5.17;;;;;;;18.88;22.74;99931.33;1748875;81;21399;-56
2022/04/05 09:59:43;;;;;;;6.30;4.30;;;;;;;18.79;23.08;99932.28;1748026;81;20939;-56
2022/04/05 10:02:17;;;;;;;6.10;4.43;;;;;;;18.67;23.14;99931.55;1715092;81;21114;-56
2022/04/05 10:05:04;;;;;;;5.73;4.57;;;;;;;18.35;23.22;99922.94;1734860;81;21008;-56
2022/04/05 10:07:33;;;;;;;6.53;4.50;;;;;;;18.09;23.63;99924.39;1727720;82;21080;-55
2022/04/05 10:10:01;;;;;;;6.07;4.03;;;;;;;18.09;23.96;99932.30;1735065;81;20896;-56
2022/04/05 10:12:28;;;;;;;6.13;4.27;;;;;;;17.88;24.00;99929.05;1733113;82;21933;-56
2022/04/05 10:14:56;;;;;;;7.60;4.83;;;;;;;17.71;24.46;99931.66;1732652;82;20904;-58
2022/04/05 10:17:29;;;;;;;6.63;4.50;;;;;;;17.06;25.12;99926.25;1748765;81;20975;-56
2022/04/05 10:19:56;;;;;;;5.93;4.50;;;;;;;17.23;25.02;99916.56;1748656;81;21051;-56
2022/04/05 10:22:23;;;;;;;7.10;5.17;;;;;;;17.09;25.34;99928.42;1748837;81;21541;-55
2022/04/05 10:24:52;;;;;;;7.10;4.87;;;;;;;17.04;25.56;99912.51;1748296;81;21768;-61
2022/04/05 10:27:20;;;;;;;7.10;4.60;;;;;;;16.94;25.74;99916.28;1748412;81;21652;-58
2022/04/05 10:30:04;;;;;;;7.23;4.80;;;;;;;16.78;26.08;99914.66;1748788;81;21609;-56
2022/04/05 10:33:05;;;;;;;6.80;5.00;;;;;;;16.71;26.14;99916.58;1748367;80;22206;-60
2022/04/05 10:35:32;;;;;;;7.90;4.90;;;;;;;16.75;26.36;99909.05;1748813;81;22238;-56
2022/04/05 10:38:19;;;;;;;7.03;4.60;;;;;;;16.87;26.43;99903.23;1748393;81;21095;-58
2022/04/05 10:41:13;;;;;;;6.67;4.90;;;;;;;17.00;26.47;99910.06;1748459;80;21681;-56
2022/04/05 10:43:42;;;;;;;6.97;5.03;;;;;;;17.02;26.56;99902.74;1732489;81;21744;-58
2022/04/05 10:46:10;;;;;;;6.43;4.83;;;;;;;17.25;26.58;99896.59;1740871;80;21678;-56
2022/04/05 10:48:56;;;;;;;6.43;4.80;;;;;;;17.25;26.58;99896.59;1746956;80;21583;-55
2022/04/05 10:51:31;;;;;;;7.37;4.97;;;;;;;17.19;26.73;99890.94;1747472;80;21763;-56
2022/04/05 10:54:19;;;;;;;7.03;4.80;;;;;;;17.33;26.44;99891.45;1748563;80;21748;-58
2022/04/05 10:57:04;;;;;;;7.07;5.27;;;;;;;17.45;26.54;99884.29;1743587;80;21653;-61
2022/04/05 10:59:39;;;;;;;6.87;4.93;;;;;;;17.45;26.54;99884.29;1709725;81;21560;-57
2022/04/05 11:02:11;;;;;;;7.33;5.10;;;;;;;17.33;26.39;99887.51;1737354;80;21659;-58
2022/04/05 11:04:38;;;;;;;6.67;4.47;;;;;;;17.14;26.82;99886.37;1740237;80;21649;-57
2022/04/05 11:07:05;;;;;;;6.90;4.87;;;;;;;16.92;27.16;99894.63;1749253;81;21743;-56
2022/04/05 11:09:46;;;;;;;7.00;4.87;;;;;;;16.58;27.75;99886.55;1740369;81;22189;-56
2022/04/05 11:12:24;;;;;;;6.05;4.62;;;;;;;16.60;28.03;99882.39;1716729;81;21727;-60
2022/04/05 11:14:59;;;;;;;7.50;5.40;;;;;;;16.40;28.53;99885.36;1740250;81;21344;-57
2022/04/05 11:17:27;;;;;;;6.33;4.93;;;;;;;16.29;28.82;99890.94;1736713;81;21988;-56
2022/04/05 11:19:57;;;;;;;7.93;5.53;;;;;;;16.23;28.86;99882.12;1729347;80;23238;-59
2022/04/05 11:22:31;;;;;;;6.97;5.20;;;;;;;16.18;29.23;99874.13;1743222;81;21649;-57
2022/04/05 11:25:13;;;;;;;7.90;4.90;;;;;;;16.34;29.31;99866.05;1749263;81;20900;-57
2022/04/05 11:27:48;;;;;;;6.13;4.57;;;;;;;16.65;29.10;99857.48;1738341;81;21522;-56
2022/04/05 11:30:27;;;;;;;8.03;5.10;;;;;;;17.01;29.28;99859.81;1733530;81;21370;-56
2022/04/05 11:33:33;;;;;;;6.40;5.13;;;;;;;17.49;28.84;99852.47;1732782;81;21253;-56
2022/04/05 11:36:09;;;;;;;14.73;10.57;;;;;;;18.26;27.84;99832.05;1734053;81;21798;-56
2022/04/05 11:38:48;;;;;;;9.63;8.07;;;;;;;18.26;27.84;99832.05;1732270;81;21609;-61